Time;durP1;ratioP1;P1;durP2;ratioP2;P2;SDS_P1;SDS_P2;PMS_P1;PMS_P2;Temp;Humidity;BMP_temperature;BMP_pressure;BME280_temperature;BME280_humidity;BME280_pressure;Samples;Min_cycle;Max_cycle;Signal;HPM_P1;HPM_P2
2023/12/14 00:00:28;;;;;;;496.93;472.30;;;3.90;99.90;;;;;;4994192;28;20410;-75
2023/12/14 00:03:06;;;;;;;462.60;440.03;;;3.90;99.90;;;;;;4995297;28;20073;-75
2023/12/14 00:05:31;;;;;;;474.25;450.52;;;3.90;99.90;;;;;;5010386;28;20095;-75
2023/12/14 00:07:57;;;;;;;468.00;445.77;;;3.80;99.90;;;;;;4993856;28;20128;-75
2023/12/14 00:10:23;;;;;;;533.10;506.33;;;3.90;99.90;;;;;;4994432;28;20476;-75
2023/12/14 00:12:50;;;;;;;434.23;412.77;;;3.90;99.90;;;;;;5009188;28;20046;-75
2023/12/14 00:15:16;;;;;;;483.65;458.10;;;3.80;99.90;;;;;;5010169;28;20042;-75
2023/12/14 00:17:42;;;;;;;477.23;452.53;;;3.90;99.90;;;;;;5015895;28;20091;-76
2023/12/14 00:20:08;;;;;;;440.00;418.37;;;3.80;99.90;;;;;;4993889;28;20508;-76
2023/12/14 00:22:34;;;;;;;463.00;439.05;;;3.80;99.90;;;;;;5009857;28;20038;-75
2023/12/14 00:24:59;;;;;;;455.33;433.17;;;3.80;99.90;;;;;;4993310;28;20041;-75
2023/12/14 00:27:25;;;;;;;460.43;436.10;;;3.80;99.90;;;;;;5011076;28;20042;-75
2023/12/14 00:29:51;;;;;;;438.17;416.93;;;3.80;99.90;;;;;;5015141;28;20046;-76
2023/12/14 00:32:16;;;;;;;386.70;368.63;;;3.80;99.90;;;;;;5009909;28;20085;-76
2023/12/14 00:34:42;;;;;;;407.80;387.77;;;3.80;99.90;;;;;;4991076;28;20418;-76
2023/12/14 00:37:08;;;;;;;472.23;448.50;;;3.80;99.90;;;;;;5009889;28;20034;-73
2023/12/14 00:39:34;;;;;;;414.48;394.95;;;3.80;99.90;;;;;;4995969;28;20490;-75
2023/12/14 01:01:02;;;;;;;365.60;347.88;;;3.70;99.90;;;;;;5011620;28;20032;-75
2023/12/14 01:03:28;;;;;;;397.95;379.13;;;3.70;99.90;;;;;;4995700;28;20494;-75
2023/12/14 01:05:54;;;;;;;408.83;389.50;;;3.70;99.90;;;;;;4979903;28;20053;-75
2023/12/14 01:08:19;;;;;;;400.90;381.30;;;3.70;99.90;;;;;;4979552;28;20545;-75
2023/12/14 01:10:45;;;;;;;402.20;382.30;;;3.70;99.90;;;;;;5012368;28;20476;-75
2023/12/14 01:13:11;;;;;;;409.30;389.83;;;3.70;99.90;;;;;;4995539;28;20060;-75
2023/12/14 01:15:36;;;;;;;491.13;465.97;;;3.70;99.90;;;;;;4995796;28;20422;-75
2023/12/14 01:18:02;;;;;;;491.90;464.70;;;3.70;99.90;;;;;;4984648;28;20074;-75
2023/12/14 01:20:29;;;;;;;430.07;408.03;;;3.70;99.90;;;;;;4979199;28;20049;-75
2023/12/14 01:22:54;;;;;;;376.52;359.63;;;3.70;99.90;;;;;;4978597;28;20089;-75
2023/12/14 01:25:20;;;;;;;346.53;330.77;;;3.70;99.90;;;;;;4978856;28;20130;-76
2023/12/14 01:27:46;;;;;;;380.07;362.50;;;3.60;99.90;;;;;;4979526;28;20042;-75
2023/12/14 01:30:12;;;;;;;367.27;350.50;;;3.60;99.90;;;;;;4995583;28;20123;-75
2023/12/14 01:32:38;;;;;;;361.20;344.70;;;3.60;99.90;;;;;;4980667;28;20549;-75
2023/12/14 01:35:04;;;;;;;400.52;381.98;;;3.60;99.90;;;;;;5007485;28;20057;-75
2023/12/14 01:37:30;;;;;;;393.10;374.52;;;3.60;99.90;;;;;;5013020;28;20049;-75
2023/12/14 01:39:56;;;;;;;428.53;406.30;;;3.60;99.90;;;;;;5012572;28;20034;-75
2023/12/14 01:42:21;;;;;;;369.63;352.93;;;3.60;99.90;;;;;;5013058;28;20064;-75
2023/12/14 01:44:47;;;;;;;365.47;348.47;;;3.60;99.90;;;;;;4995265;28;20457;-75
2023/12/14 01:47:13;;;;;;;371.90;355.10;;;3.60;99.90;;;;;;4996273;28;20088;-75
2023/12/14 01:49:41;;;;;;;374.53;357.63;;;3.60;99.90;;;;;;4996128;28;20060;-76
2023/12/14 01:52:07;;;;;;;407.75;388.48;;;3.60;99.90;;;;;;5012648;28;20513;-75
2023/12/14 01:54:33;;;;;;;418.27;398.10;;;3.60;99.90;;;;;;5012680;28;20042;-75
2023/12/14 01:56:59;;;;;;;355.15;339.25;;;3.60;99.90;;;;;;5013003;28;20041;-75
2023/12/14 01:59:24;;;;;;;352.20;336.17;;;3.60;99.90;;;;;;5012403;28;20038;-75
2023/12/14 02:01:56;;;;;;;384.83;366.70;;;3.60;99.90;;;;;;4997675;28;20608;-76
2023/12/14 02:04:25;;;;;;;343.20;327.80;;;3.60;99.90;;;;;;5012171;28;20731;-75
2023/12/14 02:06:50;;;;;;;376.30;358.65;;;3.60;99.90;;;;;;4995247;28;20394;-75
2023/12/14 02:09:16;;;;;;;427.47;406.43;;;3.60;99.90;;;;;;5015613;28;20037;-75
2023/12/14 02:11:42;;;;;;;360.57;343.90;;;3.50;99.90;;;;;;5012345;28;20042;-75
2023/12/14 02:14:13;;;;;;;370.97;353.57;;;3.60;99.90;;;;;;5012152;28;20038;-75
2023/12/14 02:16:38;;;;;;;377.05;359.45;;;3.50;99.90;;;;;;4995009;28;20394;-75
2023/12/14 02:19:05;;;;;;;393.07;373.53;;;3.50;99.90;;;;;;4995515;28;20029;-75
2023/12/14 02:21:31;;;;;;;393.65;374.58;;;3.50;99.90;;;;;;4995863;28;20046;-75
2023/12/14 02:23:57;;;;;;;399.00;380.23;;;3.50;99.90;;;;;;4995285;28;20053;-75
2023/12/14 02:26:22;;;;;;;420.37;399.47;;;3.50;99.90;;;;;;5012224;28;20046;-75
2023/12/14 02:28:48;;;;;;;448.33;424.30;;;3.50;99.90;;;;;;5012223;28;20042;-75
2023/12/14 02:31:14;;;;;;;441.77;420.10;;;3.60;99.90;;;;;;4995545;28;20061;-75
2023/12/14 02:33:40;;;;;;;408.83;388.95;;;3.60;99.90;;;;;;5012223;28;20375;-75
2023/12/14 02:36:06;;;;;;;442.57;420.30;;;3.60;99.90;;;;;;5012283;28;20043;-76
2023/12/14 02:38:32;;;;;;;351.42;335.70;;;3.60;99.90;;;;;;5011164;28;20046;-75
2023/12/14 02:40:57;;;;;;;341.50;326.17;;;3.60;99.90;;;;;;5014109;28;20045;-76
2023/12/14 02:43:23;;;;;;;411.37;392.10;;;3.60;99.90;;;;;;5011603;28;20100;-76
2023/12/14 02:45:49;;;;;;;357.10;340.90;;;3.60;99.90;;;;;;4997843;28;20528;-76
2023/12/14 02:48:15;;;;;;;382.87;364.83;;;3.60;99.90;;;;;;5011083;28;20041;-76
2023/12/14 02:50:41;;;;;;;352.85;336.67;;;3.60;99.90;;;;;;5011774;28;20048;-75
2023/12/14 02:53:06;;;;;;;345.97;330.37;;;3.60;99.90;;;;;;4997237;28;20502;-76
2023/12/14 02:55:32;;;;;;;326.73;311.67;;;3.60;99.90;;;;;;5013302;28;20050;-76
2023/12/14 02:57:58;;;;;;;352.30;336.47;;;3.60;99.90;;;;;;5011698;28;20064;-76
2023/12/14 03:00:24;;;;;;;326.93;312.83;;;3.60;99.90;;;;;;5011166;28;20050;-76
2023/12/14 03:02:49;;;;;;;317.77;303.80;;;3.60;99.90;;;;;;5011294;28;20042;-76
2023/12/14 03:05:15;;;;;;;366.70;350.40;;;3.60;99.90;;;;;;4995115;28;20042;-76
2023/12/14 03:07:41;;;;;;;401.40;382.23;;;3.60;99.90;;;;;;4998482;28;20498;-76
2023/12/14 03:10:07;;;;;;;380.20;362.40;;;3.60;99.90;;;;;;5013082;28;20046;-75
2023/12/14 03:12:33;;;;;;;367.75;350.48;;;3.60;99.90;;;;;;5008923;28;20046;-76
2023/12/14 03:14:59;;;;;;;366.60;350.10;;;3.60;99.90;;;;;;5008142;28;20050;-76
2023/12/14 03:17:24;;;;;;;338.60;323.57;;;3.60;99.90;;;;;;5017852;28;20045;-75
2023/12/14 03:19:50;;;;;;;326.83;312.07;;;3.60;99.90;;;;;;5011143;28;20042;-75
2023/12/14 03:22:16;;;;;;;367.67;350.73;;;3.60;99.90;;;;;;5010434;28;20081;-75
2023/12/14 03:24:42;;;;;;;346.63;330.97;;;3.70;99.90;;;;;;5011154;28;20045;-75
2023/12/14 03:27:08;;;;;;;354.38;338.42;;;3.70;99.90;;;;;;5008157;28;20049;-75
2023/12/14 03:29:34;;;;;;;392.50;373.63;;;3.60;99.90;;;;;;5014837;28;20049;-75
2023/12/14 03:32:00;;;;;;;331.23;316.75;;;3.70;99.90;;;;;;4988735;28;20413;-75
2023/12/14 03:34:26;;;;;;;422.20;402.23;;;3.70;99.90;;;;;;5011990;28;20049;-76
2023/12/14 03:36:52;;;;;;;384.07;366.77;;;3.70;99.90;;;;;;4994404;28;20536;-76
2023/12/14 03:39:17;;;;;;;468.50;439.73;;;3.70;99.90;;;;;;5011156;28;20052;-76
2023/12/14 03:41:44;;;;;;;397.13;378.83;;;3.70;99.90;;;;;;5012231;28;20037;-76
2023/12/14 03:44:10;;;;;;;413.30;393.40;;;3.60;99.90;;;;;;4990960;28;20045;-76
2023/12/14 03:46:35;;;;;;;416.17;397.03;;;3.70;99.90;;;;;;5010882;28;20041;-74
2023/12/14 03:49:02;;;;;;;404.57;385.87;;;3.70;99.90;;;;;;5011422;28;20054;-75
2023/12/14 03:51:28;;;;;;;421.67;402.05;;;3.70;99.90;;;;;;4993265;28;20080;-75
2023/12/14 03:53:54;;;;;;;414.80;394.60;;;3.70;99.90;;;;;;5010607;28;20065;-75
2023/12/14 03:56:19;;;;;;;416.13;395.80;;;3.70;99.90;;;;;;5010206;28;20065;-75
2023/12/14 03:58:45;;;;;;;449.47;427.13;;;3.70;99.90;;;;;;5010549;28;20118;-74
2023/12/14 04:01:21;;;;;;;428.27;407.47;;;3.70;99.90;;;;;;4993697;28;20441;-75
2023/12/14 04:03:47;;;;;;;471.77;448.60;;;3.70;99.90;;;;;;5007491;28;20105;-75
2023/12/14 04:06:13;;;;;;;494.15;468.92;;;3.70;99.90;;;;;;4985353;28;20069;-75
2023/12/14 04:08:40;;;;;;;481.45;456.88;;;3.70;99.90;;;;;;4999827;28;20037;-74
2023/12/14 04:11:06;;;;;;;483.35;459.35;;;3.70;99.90;;;;;;4981998;28;20046;-75
2023/12/14 04:13:32;;;;;;;485.73;460.83;;;3.70;99.90;;;;;;4995654;28;20033;-74
2023/12/14 04:15:57;;;;;;;501.27;476.00;;;3.80;99.90;;;;;;4994157;28;20049;-75
2023/12/14 04:18:23;;;;;;;514.63;488.33;;;3.70;99.90;;;;;;5013980;28;20034;-76
2023/12/14 04:20:50;;;;;;;501.38;474.15;;;3.70;99.90;;;;;;5012667;28;20136;-75
2023/12/14 04:23:15;;;;;;;499.35;473.80;;;3.80;99.90;;;;;;4997220;28;20045;-75
2023/12/14 04:25:41;;;;;;;471.10;447.73;;;3.80;99.90;;;;;;5014654;28;20041;-76
2023/12/14 04:28:07;;;;;;;505.60;479.53;;;3.70;99.90;;;;;;5014523;28;20045;-76
2023/12/14 04:30:32;;;;;;;497.93;472.60;;;3.80;99.90;;;;;;5013714;28;20038;-76
2023/12/14 04:32:58;;;;;;;510.27;483.80;;;3.80;99.90;;;;;;4996570;28;20536;-76
2023/12/14 04:35:24;;;;;;;505.03;477.47;;;3.80;99.90;;;;;;5013129;28;20172;-75
2023/12/14 04:37:50;;;;;;;466.37;443.03;;;3.80;99.90;;;;;;5013789;28;20038;-76
2023/12/14 04:40:15;;;;;;;524.03;496.33;;;3.80;99.90;;;;;;5016094;28;20405;-76
2023/12/14 04:42:41;;;;;;;462.23;439.30;;;3.80;99.90;;;;;;4999091;28;20037;-76
2023/12/14 04:45:08;;;;;;;497.47;472.13;;;3.80;99.90;;;;;;4997696;28;20063;-75
2023/12/14 04:47:35;;;;;;;496.08;470.90;;;3.80;99.90;;;;;;5011083;28;20104;-76
2023/12/14 04:50:02;;;;;;;493.70;468.38;;;3.80;99.90;;;;;;5014194;28;20494;-76
2023/12/14 04:52:28;;;;;;;498.30;472.83;;;3.80;99.90;;;;;;5015271;28;20056;-76
2023/12/14 04:54:53;;;;;;;501.37;474.37;;;3.80;99.90;;;;;;5015122;28;20041;-76
2023/12/14 04:57:19;;;;;;;528.77;501.13;;;3.80;99.90;;;;;;5012970;28;20402;-75
2023/12/14 04:59:45;;;;;;;560.23;530.20;;;3.80;99.90;;;;;;4992553;28;20065;-76
2023/12/14 05:02:10;;;;;;;548.87;518.97;;;3.80;99.90;;;;;;4997748;28;20049;-76
2023/12/14 05:04:36;;;;;;;472.10;448.57;;;3.80;99.90;;;;;;5009523;28;20457;-76
2023/12/14 05:07:02;;;;;;;489.17;464.97;;;3.80;99.90;;;;;;5013539;28;20126;-76
2023/12/14 05:09:28;;;;;;;481.57;457.37;;;3.80;99.90;;;;;;5013422;28;20049;-75
2023/12/14 05:11:53;;;;;;;424.70;403.60;;;3.80;99.90;;;;;;5013253;28;20046;-75
2023/12/14 05:14:19;;;;;;;530.70;503.73;;;3.80;99.90;;;;;;5013407;28;20100;-75
2023/12/14 05:16:45;;;;;;;478.23;454.20;;;3.80;99.90;;;;;;5015414;28;20042;-75
2023/12/14 05:19:12;;;;;;;498.07;472.73;;;3.80;99.90;;;;;;5012755;28;20044;-74
2023/12/14 05:21:38;;;;;;;533.85;507.13;;;3.80;99.90;;;;;;4997074;28;20095;-75
2023/12/14 05:24:04;;;;;;;448.17;426.50;;;3.80;99.90;;;;;;5012664;28;20050;-75
2023/12/14 05:26:30;;;;;;;500.98;475.52;;;3.80;99.90;;;;;;5013197;28;20502;-75
2023/12/14 05:28:56;;;;;;;507.13;481.53;;;3.80;99.90;;;;;;5011411;28;20041;-75
2023/12/14 05:31:22;;;;;;;507.63;481.50;;;3.80;99.90;;;;;;4996101;28;20448;-75
2023/12/14 05:33:47;;;;;;;516.47;488.87;;;3.80;99.90;;;;;;5013409;28;20050;-75
2023/12/14 05:36:14;;;;;;;490.98;465.42;;;3.80;99.90;;;;;;4996855;28;20108;-75
2023/12/14 05:38:41;;;;;;;472.73;449.43;;;3.80;99.90;;;;;;4995926;28;20498;-75
2023/12/14 05:41:07;;;;;;;517.75;490.52;;;3.80;99.90;;;;;;4998019;28;20251;-75
2023/12/14 05:43:33;;;;;;;628.45;594.53;;;3.80;99.90;;;;;;4996104;28;20049;-75
2023/12/14 05:45:59;;;;;;;569.27;538.20;;;3.80;99.90;;;;;;5014422;28;20034;-75
2023/12/14 05:48:26;;;;;;;535.83;507.00;;;3.80;99.90;;;;;;5012582;28;20045;-75
2023/12/14 05:50:52;;;;;;;485.33;460.50;;;3.80;99.90;;;;;;5015701;28;20073;-76
2023/12/14 05:53:18;;;;;;;526.10;499.83;;;3.80;99.90;;;;;;5012593;28;20187;-75
2023/12/14 05:55:43;;;;;;;541.83;513.10;;;3.80;99.90;;;;;;5012253;28;20125;-76
2023/12/14 05:58:09;;;;;;;522.53;496.20;;;3.80;99.90;;;;;;5012643;28;20037;-76
2023/12/14 06:00:36;;;;;;;548.90;518.67;;;3.80;99.90;;;;;;4996521;28;20548;-76
2023/12/14 06:03:02;;;;;;;559.35;530.60;;;3.80;99.90;;;;;;4996298;28;20042;-75
2023/12/14 06:05:28;;;;;;;492.45;466.90;;;3.80;99.90;;;;;;5011888;28;20045;-76
2023/12/14 06:07:54;;;;;;;446.83;424.70;;;3.80;99.90;;;;;;4995519;28;20045;-75
2023/12/14 06:10:21;;;;;;;493.85;469.48;;;3.80;99.90;;;;;;4995293;28;20038;-75
2023/12/14 06:12:47;;;;;;;462.48;439.23;;;3.80;99.90;;;;;;4995102;28;20042;-76
2023/12/14 06:15:13;;;;;;;518.83;492.73;;;3.80;99.90;;;;;;4995725;28;20033;-76
2023/12/14 06:17:40;;;;;;;500.07;474.67;;;3.80;99.90;;;;;;5010632;28;20067;-75
2023/12/14 06:20:10;;;;;;;566.95;536.22;;;3.80;99.90;;;;;;4988809;28;20277;-75
2023/12/14 06:22:39;;;;;;;526.72;499.60;;;3.80;99.90;;;;;;4995126;28;20042;-75
2023/12/14 06:25:05;;;;;;;441.25;418.95;;;3.80;99.90;;;;;;5012576;28;20394;-75
2023/12/14 06:27:31;;;;;;;599.60;567.42;;;3.80;99.90;;;;;;5011789;28;20049;-76
2023/12/14 06:29:57;;;;;;;608.90;573.73;;;3.80;99.90;;;;;;5010214;28;20044;-76
2023/12/14 06:32:22;;;;;;;609.40;575.60;;;3.80;99.90;;;;;;4992774;28;20087;-75
2023/12/14 06:34:48;;;;;;;528.33;500.93;;;3.80;99.90;;;;;;5012158;28;20088;-75
2023/12/14 06:37:14;;;;;;;535.13;507.40;;;3.80;99.90;;;;;;4995237;28;20041;-75
2023/12/14 06:39:43;;;;;;;500.80;475.17;;;3.80;99.90;;;;;;4995099;28;20390;-76
2023/12/14 06:42:09;;;;;;;572.13;542.25;;;3.80;99.90;;;;;;4986669;28;20066;-76
2023/12/14 06:44:35;;;;;;;542.77;514.57;;;3.80;99.90;;;;;;5010654;28;20583;-76
2023/12/14 06:47:01;;;;;;;534.07;506.23;;;3.80;99.90;;;;;;5009338;28;20080;-76
2023/12/14 06:49:26;;;;;;;548.33;519.63;;;3.80;99.90;;;;;;4993879;28;20040;-76
2023/12/14 06:51:52;;;;;;;520.33;493.33;;;3.80;99.90;;;;;;5011226;28;20048;-76
2023/12/14 06:54:18;;;;;;;567.43;537.20;;;3.80;99.90;;;;;;4995021;28;20730;-76
2023/12/14 06:56:44;;;;;;;522.08;494.00;;;3.80;99.90;;;;;;5011732;28;20038;-76
2023/12/14 06:59:10;;;;;;;598.40;566.03;;;3.80;99.90;;;;;;5011532;28;20036;-76
2023/12/14 07:01:35;;;;;;;487.70;461.33;;;3.80;99.90;;;;;;4994745;28;20050;-76
2023/12/14 07:04:03;;;;;;;511.23;485.90;;;3.80;99.90;;;;;;4984109;28;20561;-76
2023/12/14 07:06:29;;;;;;;505.73;480.90;;;3.80;99.90;;;;;;5010814;28;20073;-75
2023/12/14 07:08:55;;;;;;;477.70;454.07;;;3.80;99.90;;;;;;4995083;28;20165;-76
2023/12/14 07:11:21;;;;;;;627.43;593.50;;;3.80;99.90;;;;;;5010248;28;20052;-76
2023/12/14 07:13:46;;;;;;;519.57;493.70;;;3.80;99.90;;;;;;4994546;28;20034;-76
2023/12/14 07:16:12;;;;;;;510.27;484.50;;;3.80;99.90;;;;;;4996392;28;20037;-76
2023/12/14 07:18:42;;;;;;;508.90;483.63;;;3.80;99.90;;;;;;4994521;28;20125;-76
2023/12/14 07:21:08;;;;;;;534.05;506.27;;;3.80;99.90;;;;;;5010780;28;20292;-76
2023/12/14 07:23:35;;;;;;;547.95;518.47;;;3.80;99.90;;;;;;5010669;28;20065;-76
2023/12/14 07:26:01;;;;;;;546.63;518.42;;;3.80;99.90;;;;;;4985966;28;20508;-76
2023/12/14 07:28:26;;;;;;;545.03;514.67;;;3.80;99.90;;;;;;4993004;28;20041;-76
2023/12/14 07:30:52;;;;;;;581.93;551.37;;;3.80;99.90;;;;;;5010623;28;20041;-76
2023/12/14 07:33:18;;;;;;;579.67;549.50;;;3.80;99.90;;;;;;4999054;28;20057;-76
2023/12/14 07:35:44;;;;;;;522.53;494.93;;;3.80;99.90;;;;;;5010109;28;20042;-76
2023/12/14 07:38:10;;;;;;;619.88;585.65;;;3.80;99.90;;;;;;4993147;28;20048;-76
2023/12/14 07:40:36;;;;;;;576.03;545.88;;;3.80;99.90;;;;;;4989780;28;20045;-76
2023/12/14 07:43:02;;;;;;;601.90;568.20;;;3.80;99.90;;;;;;4996676;28;20037;-76
2023/12/14 07:45:28;;;;;;;518.97;493.67;;;3.80;99.90;;;;;;4995818;28;20576;-76
2023/12/14 07:47:53;;;;;;;537.70;510.73;;;3.80;99.90;;;;;;5006203;28;20494;-76
2023/12/14 07:50:19;;;;;;;542.60;515.40;;;3.80;99.90;;;;;;4991193;28;20057;-76
2023/12/14 07:52:45;;;;;;;579.17;547.70;;;3.80;99.90;;;;;;5012567;28;20383;-76
2023/12/14 07:55:13;;;;;;;514.40;488.83;;;3.80;99.90;;;;;;5010588;28;20054;-76
2023/12/14 07:57:39;;;;;;;477.83;453.90;;;3.80;99.90;;;;;;4994226;28;20401;-75
2023/12/14 08:00:08;;;;;;;540.23;512.23;;;3.80;99.90;;;;;;5010355;28;20033;-76
2023/12/14 08:02:34;;;;;;;654.00;613.97;;;3.80;99.90;;;;;;4993054;28;20046;-75
2023/12/14 08:05:00;;;;;;;577.00;545.53;;;3.90;99.90;;;;;;5010552;28;20052;-75
2023/12/14 08:07:28;;;;;;;630.57;594.93;;;3.80;99.90;;;;;;5012399;28;20042;-75
2023/12/14 08:09:55;;;;;;;686.22;646.58;;;3.90;99.90;;;;;;4993683;28;20038;-75
2023/12/14 08:12:21;;;;;;;700.40;658.53;;;3.90;99.90;;;;;;5009972;28;20057;-75
2023/12/14 08:14:47;;;;;;;749.50;702.95;;;3.90;99.90;;;;;;5008027;28;20509;-75
2023/12/14 08:17:13;;;;;;;622.03;587.43;;;3.90;99.90;;;;;;5011878;28;20069;-76
2023/12/14 08:19:39;;;;;;;670.93;633.33;;;3.90;99.90;;;;;;4993881;28;20034;-75
2023/12/14 08:22:04;;;;;;;724.93;683.60;;;3.90;99.90;;;;;;5010043;28;20038;-75
2023/12/14 08:24:30;;;;;;;721.17;678.80;;;4.00;99.90;;;;;;4992547;28;20041;-75
2023/12/14 08:26:56;;;;;;;628.37;594.47;;;4.00;99.90;;;;;;5009921;28;20119;-75
2023/12/14 08:29:22;;;;;;;632.67;597.00;;;4.00;99.90;;;;;;5009913;28;20521;-75
2023/12/14 08:31:48;;;;;;;675.78;636.88;;;4.00;99.90;;;;;;5009697;28;20066;-75
2023/12/14 08:34:14;;;;;;;733.55;689.30;;;4.00;99.90;;;;;;5009030;28;20065;-76
2023/12/14 08:36:40;;;;;;;675.30;637.10;;;4.00;99.90;;;;;;4993881;28;20128;-76
2023/12/14 08:39:06;;;;;;;648.53;611.30;;;4.10;99.90;;;;;;5008479;28;20038;-76
2023/12/14 08:41:32;;;;;;;639.28;603.90;;;4.00;99.90;;;;;;4992808;28;20426;-76
2023/12/14 08:43:58;;;;;;;649.37;611.83;;;4.10;99.90;;;;;;5009094;28;20045;-75
2023/12/14 08:46:23;;;;;;;616.97;582.20;;;4.10;99.90;;;;;;5006497;28;20042;-75
2023/12/14 08:48:49;;;;;;;657.40;620.07;;;4.10;99.90;;;;;;5009995;28;20054;-75
2023/12/14 08:51:15;;;;;;;716.60;674.07;;;4.10;99.90;;;;;;4983023;28;20156;-75
2023/12/14 08:53:41;;;;;;;759.35;713.17;;;4.10;99.90;;;;;;4990190;28;20041;-76
2023/12/14 08:56:08;;;;;;;785.80;735.93;;;4.10;99.90;;;;;;5007752;28;20042;-75
2023/12/14 08:58:34;;;;;;;756.30;707.47;;;4.10;99.90;;;;;;4993270;28;20398;-76
2023/12/14 09:01:00;;;;;;;709.23;667.33;;;4.10;99.90;;;;;;4993224;28;20042;-75
2023/12/14 09:03:26;;;;;;;675.40;636.97;;;4.20;99.90;;;;;;5009626;28;20038;-76
2023/12/14 09:05:52;;;;;;;614.58;581.33;;;4.20;99.90;;;;;;5010118;28;20053;-76
2023/12/14 09:08:18;;;;;;;688.33;648.97;;;4.20;99.90;;;;;;5012209;28;20053;-76
2023/12/14 09:10:44;;;;;;;645.20;609.47;;;4.20;99.90;;;;;;4989932;28;20042;-76
2023/12/14 09:13:10;;;;;;;648.83;612.30;;;4.20;99.90;;;;;;4991080;28;20490;-76
2023/12/14 09:15:36;;;;;;;731.50;683.30;;;4.30;99.90;;;;;;4997095;28;20108;-75
2023/12/14 09:18:02;;;;;;;740.03;693.58;;;4.30;99.90;;;;;;5012448;28;20128;-75
2023/12/14 09:20:28;;;;;;;696.23;654.70;;;4.30;99.90;;;;;;4995079;28;20073;-76
2023/12/14 09:22:54;;;;;;;705.30;661.80;;;4.40;99.90;;;;;;4993343;28;20300;-76
2023/12/14 09:25:20;;;;;;;644.67;608.63;;;4.40;99.90;;;;;;5009569;28;20038;-76
2023/12/14 09:27:45;;;;;;;572.55;543.15;;;4.50;99.90;;;;;;4987618;28;20049;-75
2023/12/14 09:30:12;;;;;;;575.73;546.23;;;4.50;99.90;;;;;;4994721;28;20446;-76
2023/12/14 09:32:39;;;;;;;566.08;536.70;;;4.60;99.90;;;;;;5013097;28;20064;-75
2023/12/14 09:35:06;;;;;;;630.55;595.25;;;4.60;99.90;;;;;;5012623;28;20499;-75
2023/12/14 09:37:32;;;;;;;607.45;575.15;;;4.60;99.90;;;;;;5012664;28;20029;-76
2023/12/14 09:39:57;;;;;;;621.57;588.10;;;4.70;99.90;;;;;;5012577;28;20037;-76
2023/12/14 09:42:23;;;;;;;606.37;575.33;;;4.70;99.90;;;;;;5014627;28;20042;-76
2023/12/14 09:44:50;;;;;;;618.78;585.33;;;4.60;99.90;;;;;;5011533;28;20124;-76
2023/12/14 09:47:16;;;;;;;570.20;541.20;;;4.60;99.90;;;;;;5016743;28;20045;-75
2023/12/14 09:49:45;;;;;;;494.80;471.00;;;4.50;99.90;;;;;;5014886;28;20038;-76
2023/12/14 09:52:11;;;;;;;451.80;429.58;;;4.40;99.90;;;;;;4996023;28;20045;-77
2023/12/14 09:54:37;;;;;;;473.83;449.43;;;4.40;99.90;;;;;;4995741;28;20042;-77
2023/12/14 09:57:03;;;;;;;539.88;511.35;;;4.30;99.90;;;;;;4995731;28;20033;-76
2023/12/14 09:59:29;;;;;;;552.47;523.88;;;4.30;99.90;;;;;;5011897;28;20026;-76
2023/12/14 10:02:12;;;;;;;504.37;479.70;;;4.30;99.90;;;;;;5012049;28;20034;-76
2023/12/14 10:04:38;;;;;;;448.85;427.58;;;4.30;99.90;;;;;;4994526;28;20056;-76
2023/12/14 10:07:07;;;;;;;504.93;479.60;;;4.30;99.90;;;;;;5013016;28;20049;-76
2023/12/14 10:09:37;;;;;;;557.30;529.13;;;4.30;99.90;;;;;;4995757;28;20128;-76
2023/12/14 10:12:08;;;;;;;568.67;538.50;;;4.30;99.90;;;;;;5010122;28;20034;-76
2023/12/14 10:14:35;;;;;;;591.30;559.88;;;4.40;99.90;;;;;;4995310;28;20042;-77
2023/12/14 10:17:33;;;;;;;486.65;463.38;;;4.40;99.90;;;;;;5012598;28;20062;-77
2023/12/14 10:20:03;;;;;;;533.65;505.50;;;4.40;99.90;;;;;;4964042;28;20129;-77
2023/12/14 10:22:32;;;;;;;493.30;469.38;;;4.50;99.90;;;;;;5010960;28;20054;-76
2023/12/14 10:24:58;;;;;;;670.08;632.00;;;4.50;99.90;;;;;;5011883;28;20041;-76
2023/12/14 10:27:24;;;;;;;617.20;583.20;;;4.60;99.90;;;;;;4995150;28;20038;-76
2023/12/14 10:29:50;;;;;;;644.33;609.23;;;4.70;99.90;;;;;;5012266;28;20449;-76
2023/12/14 10:32:18;;;;;;;567.67;537.53;;;4.70;99.90;;;;;;5010489;28;20053;-76
2023/12/14 10:34:44;;;;;;;567.25;536.80;;;4.80;99.90;;;;;;4985197;28;20043;-76
2023/12/14 10:37:12;;;;;;;612.37;580.03;;;4.90;99.90;;;;;;4987452;28;20041;-77
2023/12/14 10:39:40;;;;;;;558.00;529.83;;;4.90;99.90;;;;;;5012678;28;20041;-76
2023/12/14 10:42:09;;;;;;;523.10;496.98;;;4.90;99.90;;;;;;5011893;28;20498;-76
2023/12/14 10:44:37;;;;;;;558.40;529.67;;;5.00;99.90;;;;;;5010964;28;20505;-76
2023/12/14 10:47:04;;;;;;;595.08;564.13;;;5.10;99.90;;;;;;5010856;28;20045;-76
2023/12/14 10:49:30;;;;;;;579.70;549.85;;;5.10;99.90;;;;;;4995006;28;20037;-76
2023/12/14 10:51:58;;;;;;;572.35;543.10;;;5.10;99.90;;;;;;5007719;28;20036;-76
2023/12/14 10:54:26;;;;;;;579.63;549.78;;;5.10;99.90;;;;;;5010373;28;20116;-77
2023/12/14 10:56:58;;;;;;;556.53;527.33;;;5.10;99.90;;;;;;5009428;28;20037;-74
2023/12/14 10:59:24;;;;;;;537.50;509.73;;;5.10;99.90;;;;;;4994392;28;20048;-77
2023/12/14 11:01:54;;;;;;;512.28;486.48;;;5.10;99.90;;;;;;5011368;28;20045;-77
2023/12/14 11:04:22;;;;;;;538.90;510.45;;;5.00;99.90;;;;;;5009145;28;20046;-74
2023/12/14 11:06:48;;;;;;;485.45;462.02;;;5.00;99.90;;;;;;4994073;28;20189;-75
2023/12/14 11:09:17;;;;;;;529.65;503.25;;;5.00;99.90;;;;;;4994843;28;20573;-75
2023/12/14 11:11:53;;;;;;;507.48;482.63;;;5.00;99.90;;;;;;4997897;28;20125;-74
2023/12/14 11:14:20;;;;;;;506.13;481.58;;;5.00;99.90;;;;;;5007154;28;20045;-75
2023/12/14 11:16:48;;;;;;;518.22;492.67;;;5.10;99.90;;;;;;5010902;28;20040;-74
2023/12/14 11:19:25;;;;;;;495.27;471.45;;;5.00;99.90;;;;;;4989007;28;20048;-75
2023/12/14 11:21:56;;;;;;;447.48;426.27;;;5.10;99.90;;;;;;5008666;28;20069;-75
2023/12/14 11:24:23;;;;;;;454.35;431.88;;;5.10;99.90;;;;;;5007729;28;20176;-74
2023/12/14 11:26:54;;;;;;;477.00;454.08;;;5.10;99.90;;;;;;5005964;28;20493;-76
2023/12/14 11:29:21;;;;;;;474.30;451.58;;;5.20;99.90;;;;;;4993888;28;20041;-75
2023/12/14 11:31:47;;;;;;;526.75;501.00;;;5.20;99.90;;;;;;5010246;28;20311;-76
2023/12/14 11:34:15;;;;;;;564.70;536.13;;;5.20;99.90;;;;;;4998535;28;20042;-76
2023/12/14 11:36:41;;;;;;;547.78;519.97;;;5.30;99.90;;;;;;5002099;28;20030;-76
2023/12/14 11:39:11;;;;;;;545.03;517.72;;;5.30;99.90;;;;;;5010310;28;20034;-76
2023/12/14 11:41:38;;;;;;;553.55;525.70;;;5.30;99.90;;;;;;5007644;28;20049;-76
2023/12/14 11:44:04;;;;;;;591.47;560.55;;;5.30;99.90;;;;;;4991826;28;20249;-75
2023/12/14 11:46:30;;;;;;;670.20;633.15;;;5.20;99.90;;;;;;5006373;28;20659;-75
2023/12/14 11:49:03;;;;;;;569.15;539.78;;;5.20;99.90;;;;;;5009957;28;20642;-76
2023/12/14 11:51:30;;;;;;;567.05;538.63;;;5.20;99.90;;;;;;5008848;28;20117;-76
2023/12/14 11:54:00;;;;;;;567.97;539.70;;;5.20;99.90;;;;;;4993661;28;20042;-75
2023/12/14 11:56:25;;;;;;;556.58;528.45;;;5.20;99.90;;;;;;5009317;28;20516;-76
2023/12/14 11:58:54;;;;;;;525.30;499.47;;;5.20;99.90;;;;;;4996703;28;20116;-76
2023/12/14 12:01:25;;;;;;;560.83;532.60;;;5.10;99.90;;;;;;4997645;28;20125;-76
2023/12/14 12:03:51;;;;;;;632.35;598.13;;;5.20;99.90;;;;;;5007383;28;20034;-76
2023/12/14 12:06:30;;;;;;;553.23;524.93;;;5.20;99.90;;;;;;4989170;28;20513;-76
2023/12/14 12:08:56;;;;;;;569.67;540.25;;;5.20;99.90;;;;;;5010368;28;20053;-76
2023/12/14 12:11:24;;;;;;;568.38;539.13;;;5.10;99.90;;;;;;4993592;28;20390;-75
2023/12/14 12:13:55;;;;;;;536.17;509.13;;;5.10;99.90;;;;;;5005801;28;20049;-76
2023/12/14 12:16:21;;;;;;;584.28;552.75;;;5.10;99.90;;;;;;5007116;28;20135;-75
2023/12/14 12:18:47;;;;;;;574.42;545.05;;;5.20;99.90;;;;;;4983731;28;20048;-75
2023/12/14 12:21:13;;;;;;;606.20;574.77;;;5.20;99.90;;;;;;5023008;28;20038;-75
2023/12/14 12:23:39;;;;;;;624.65;591.05;;;5.20;99.90;;;;;;4989432;28;20418;-75
2023/12/14 12:26:05;;;;;;;614.90;582.93;;;5.30;99.90;;;;;;5005541;28;20037;-76
2023/12/14 12:28:31;;;;;;;584.00;554.63;;;5.30;99.90;;;;;;4990175;28;20505;-75
2023/12/14 12:30:57;;;;;;;558.35;530.33;;;5.30;99.90;;;;;;5006804;28;20038;-76
2023/12/14 12:33:23;;;;;;;636.80;602.88;;;5.30;99.90;;;;;;5007120;28;20082;-76